createdAt,value
2019-06-27T18:54:30.595Z,2.00
2019-06-27T18:56:56.546Z,2.07
2019-06-27T18:59:22.419Z,1.90
2019-06-27T19:01:48.406Z,1.83
2019-06-27T19:04:14.598Z,1.70
2019-06-27T19:06:40.532Z,1.93
2019-06-27T19:09:06.444Z,2.00
2019-06-27T19:11:32.345Z,2.07
2019-06-27T19:13:58.293Z,2.00
2019-06-27T19:16:24.184Z,2.17
2019-06-27T19:18:52.103Z,2.00
2019-06-27T19:21:36.449Z,2.10
2019-06-27T19:24:07.073Z,2.07
2019-06-27T19:26:32.953Z,2.10
2019-06-27T19:28:58.871Z,2.23
2019-06-27T19:31:24.754Z,2.00
2019-06-27T19:33:50.792Z,2.10
2019-06-27T19:36:16.663Z,2.33
2019-06-27T19:38:42.588Z,2.57
2019-06-27T19:41:08.481Z,2.33
2019-06-27T19:43:34.409Z,2.30
2019-06-27T19:46:00.277Z,2.20
2019-06-27T19:48:26.215Z,1.70
2019-06-27T19:50:52.092Z,1.93
2019-06-27T19:53:18.004Z,1.73
2019-06-27T19:55:43.972Z,1.87
2019-06-27T19:58:09.848Z,1.87
2019-06-27T20:00:35.813Z,2.27
2019-06-27T20:03:01.706Z,1.90
2019-06-27T20:05:27.619Z,2.20
2019-06-27T20:07:53.511Z,2.30
2019-06-27T20:10:19.435Z,2.20
2019-06-27T20:12:45.419Z,2.20
2019-06-27T20:15:11.379Z,2.17
2019-06-27T20:17:37.269Z,2.20
2019-06-27T20:20:03.343Z,2.40
2019-06-27T20:22:29.309Z,2.00
2019-06-27T20:24:55.235Z,2.20
2019-06-27T20:27:21.148Z,2.50
2019-06-27T20:29:47.043Z,2.20
2019-06-27T20:32:12.967Z,2.17
2019-06-27T20:34:39.550Z,2.10
2019-06-27T20:37:05.649Z,1.87
2019-06-27T20:39:31.557Z,2.57
2019-06-27T20:41:57.458Z,2.40
2019-06-27T20:44:23.653Z,2.40
2019-06-27T20:46:49.578Z,2.37
2019-06-27T20:49:15.529Z,2.00
2019-06-27T20:51:41.589Z,2.30
2019-06-27T20:54:07.597Z,2.20
2019-06-27T20:56:33.509Z,2.30
2019-06-27T20:58:59.382Z,2.40
2019-06-27T21:01:25.328Z,2.47
2019-06-27T21:03:51.192Z,2.10
2019-06-27T21:06:17.155Z,2.23
2019-06-27T21:08:51.143Z,2.20
2019-06-27T21:11:10.839Z,2.30
2019-06-27T21:13:36.783Z,2.07
2019-06-27T21:16:02.656Z,1.80
2019-06-27T21:18:28.538Z,2.07
2019-06-27T21:20:54.461Z,2.30
2019-06-27T21:23:20.334Z,2.13
2019-06-27T21:25:46.241Z,2.30
2019-06-27T21:28:12.114Z,2.50
2019-06-27T21:30:38.020Z,2.20
2019-06-27T21:33:03.888Z,2.30
2019-06-27T21:35:29.778Z,2.30
2019-06-27T21:37:55.672Z,2.30
2019-06-27T21:40:22.608Z,2.27
2019-06-27T21:42:48.539Z,2.73
2019-06-27T21:45:14.469Z,2.17
2019-06-27T21:47:40.369Z,2.37
2019-06-27T21:50:06.788Z,2.40
2019-06-27T21:52:32.680Z,2.90
2019-06-27T21:54:58.617Z,2.63
2019-06-27T21:57:24.557Z,2.60
2019-06-27T21:59:50.532Z,2.57
2019-06-27T22:02:16.577Z,2.80
2019-06-27T22:04:42.504Z,2.57
2019-06-27T22:07:08.470Z,2.67
2019-06-27T22:09:34.347Z,2.57
2019-06-27T22:12:00.234Z,2.73
2019-06-27T22:14:26.146Z,2.90
2019-06-27T22:16:52.027Z,2.40
2019-06-27T22:19:17.940Z,3.03
2019-06-27T22:21:44.118Z,2.50
2019-06-27T22:24:10.066Z,2.93
2019-06-27T22:26:35.982Z,2.80
2019-06-27T22:29:02.002Z,2.50
2019-06-27T22:31:27.924Z,2.80
2019-06-27T22:33:53.872Z,3.10
2019-06-27T22:36:19.741Z,2.70
2019-06-27T22:39:04.607Z,2.50
2019-06-27T22:41:48.971Z,2.57
2019-06-27T22:44:33.627Z,2.67
2019-06-27T22:47:17.931Z,2.57
2019-06-27T22:49:43.820Z,2.60
2019-06-27T22:52:26.805Z,2.50
2019-06-27T22:54:54.668Z,2.77
2019-06-27T22:57:20.553Z,2.57
2019-06-27T22:59:46.419Z,2.70
2019-06-27T23:02:12.388Z,2.60
2019-06-27T23:04:38.264Z,2.50
2019-06-27T23:07:04.171Z,2.63
2019-06-27T23:09:30.077Z,2.47
2019-06-27T23:11:56.028Z,2.60
2019-06-27T23:14:21.996Z,2.20
2019-06-27T23:16:47.897Z,2.63
2019-06-27T23:19:13.836Z,2.80
2019-06-27T23:21:39.711Z,2.77
2019-06-27T23:24:05.622Z,2.60
2019-06-27T23:26:31.499Z,2.27
2019-06-27T23:28:57.420Z,2.50
2019-06-27T23:31:23.295Z,2.30
2019-06-27T23:33:49.175Z,2.40
2019-06-27T23:36:15.094Z,2.60
2019-06-27T23:38:40.954Z,2.20
2019-06-27T23:41:06.868Z,2.20
2019-06-27T23:43:32.732Z,2.60
2019-06-27T23:45:58.640Z,2.73
2019-06-27T23:48:24.526Z,2.40
2019-06-27T23:50:50.487Z,2.40
2019-06-27T23:53:16.462Z,2.20
2019-06-27T23:55:42.362Z,2.50
2019-06-27T23:58:08.277Z,2.20
